Home > Products > Valid Products > SSM

000
SMZS01 NSTU 212356
SSMPPG
AAXX 22004
91765 32569 31006 10304 20248 30108 40112 57019 83100 333 20267
562// 59001 555 92200=




000
SMZS01 NSTU 211757
SSMPPG
AAXX 21184
91765 32469 51108 10268 20240 30117 40120 51019 85400 333 562// 555
92118=




000
SMZS01 NSTU 211155
SSMPPG
AAXX 21124
91765 32566 61111 10271 20246 30112 40115 56008 86400 333 10317
562// 59007 555 92112=




000
SMZS01 NSTU 210556
SSMPPG
AAXX 21064
91765 32566 41110 10276 20245 30108 40112 52012 83101 333 562/9
70003 555 92106=




000
SMZS01 NSTU 202356
SSMPPG
AAXX 21004
91765 12569 30911 10317 20255 30110 40113 56015 69934 81185 333
20258 56299 59006 70003 555 92100=




000
SMZS01 NSTU 201754
SSMPPG
AAXX 20184
91765 11469 31010 10268 20238 30119 40122 52014 69901 70181 83800
333 562// 70003 555 92018=




000
SMZS01 NSTU 201202
SSMPPG
AAXX 20124
91765 11462 71210 10258 20242 30119 40122 56007 69931 78011 87400
333 10305 562// 59007 70003 555 92012=




000
SMZS01 NSTU 192356
SSMPPG
AAXX 20004
91765 12569 21208 10300 20244 30115 40119 56024 60044 82100 333
20243 563// 59008 70038 555 92000=




000
SMZS01 NSTU 191758
SSMPPG
AAXX 19184
91765 32469 41206 10261 20230 30125 40129 52014 84800 333 563//
70038 555 91918=





000
SMZS01 NSTU 190558
SSMPPG
AAXX 19064
91765 11566 71409 10259 20233 30119 40122 52002 60041 70288 85220
333 56220 70051 555 91906=





    US Dept of Commerce
    National Oceanic and Atmospheric Administration
    National Weather Service
    1325 East West Highway
    Silver Spring, MD 20910
    Page Author: NWS Internet Services Team
Disclaimer
Information Quality
Credits
Glossary
Privacy Policy
Freedom of Information Act (FOIA)
About Us
Career Opportunities